Positano — IJZJ — position and weather

sailwx.info

Track history (hours):
 
Tides and Currents Weather Stations Pressure Air Temp Water Temp Dewpoint Dewpoint Depression Visibility Wind Speed Wind Dir Waves Ship Positions

Positano

Last reported at 2016-Aug-24 16:33 UTC. Time now 2016-Aug-24 17:57 UTC.
Position N 40°37' E 014°20'.

Length 12 m.

MMSI: 247208300.

Date/timePositionNaut miles runAvg speedWind from/ knotsBaromVisibWave heightAir tempDewpointWater temp
2016-Aug-24 16:33N 40°37' E 014°20'5 5.2
2016-Aug-24 15:33N 40°33' E 014°14'0 0.0
2016-Aug-24 09:33N 40°34' E 014°15'3 2.3
2016-Aug-24 08:25N 40°33' E 014°12'7 8.4
2016-Aug-24 07:33N 40°36' E 014°20'0 0.0
2016-Aug-23 16:33N 40°37' E 014°20'5 5.2
2016-Aug-23 15:33N 40°33' E 014°15'0 0.0
2016-Aug-23 09:33N 40°33' E 014°15'2 1.7
2016-Aug-23 08:14N 40°33' E 014°12'5 7.7
2016-Aug-23 07:33N 40°36' E 014°18'2 0.0
2016-Aug-21 16:33N 40°37' E 014°20'5 5.1
2016-Aug-21 15:33N 40°33' E 014°15'1 1.1
2016-Aug-21 14:33N 40°32' E 014°15'0 0.3
2016-Aug-21 13:33N 40°33' E 014°15'0 0.0
2016-Aug-21 12:33N 40°33' E 014°15'0 0.0
2016-Aug-21 11:33N 40°33' E 014°15'0 0.0
2016-Aug-21 10:33N 40°33' E 014°15'1 0.8
2016-Aug-21 09:33N 40°33' E 014°15'1 1.5
2016-Aug-21 08:33N 40°32' E 014°13'5 5.4
2016-Aug-21 07:33N 40°36' E 014°19'1 0.1
2016-Aug-20 16:31N 40°37' E 014°20'5 5.4
2016-Aug-20 15:33N 40°33' E 014°15'1 0.7
2016-Aug-20 14:31N 40°33' E 014°15'0 0.0
2016-Aug-20 13:34N 40°33' E 014°15'0 0.0
2016-Aug-20 12:34N 40°33' E 014°15'0 0.0
2016-Aug-20 11:33N 40°33' E 014°15'0 0.0
2016-Aug-20 10:32N 40°33' E 014°15'1 0.8
2016-Aug-20 09:33N 40°33' E 014°15'1 1.4
2016-Aug-20 08:34N 40°32' E 014°14'6 5.8
2016-Aug-20 07:33N 40°36' E 014°19'1 0.0
2016-Aug-18 16:33N 40°37' E 014°20'7 3.5
2016-Aug-18 14:33N 40°37' E 014°29'0 0.0
2016-Aug-18 13:31N 40°37' E 014°29'1 0.3
2016-Aug-18 08:27N 40°36' E 014°29'8 8.5
2016-Aug-18 07:33N 40°34' E 014°19'2 2.3
2016-Aug-18 06:33N 40°37' E 014°20'0 0.0
2016-Aug-17 16:33N 40°37' E 014°20'7 3.3
2016-Aug-17 14:27N 40°38' E 014°29'0 0.1
2016-Aug-17 13:31N 40°37' E 014°29'2 0.3
2016-Aug-17 08:33N 40°36' E 014°31'9 9.0
2016-Aug-17 07:33N 40°34' E 014°19'2 0.2
2016-Aug-16 16:33N 40°37' E 014°20'5 5.3
2016-Aug-16 15:33N 40°33' E 014°14'1 0.8
2016-Aug-16 14:33N 40°33' E 014°15'0 0.1
2016-Aug-16 13:33N 40°33' E 014°15'0 0.0
2016-Aug-16 12:33N 40°33' E 014°15'0 0.0
2016-Aug-16 11:33N 40°33' E 014°15'1 0.6
2016-Aug-16 09:33N 40°34' E 014°16'1 0.3
2016-Aug-16 08:05N 40°33' E 014°16'4 8.3
2016-Aug-16 07:33N 40°37' E 014°20'  
Track history (hours):
 
Tides and Currents Weather Stations Pressure Air Temp Water Temp Dewpoint Dewpoint Depression Visibility Wind Speed Wind Dir Waves Ship Positions

Positano

Last reported at 2016-Aug-24 16:33 UTC. Time now 2016-Aug-24 17:57 UTC.
Position N 40°37' E 014°20'.

Length 12 m.

MMSI: 247208300.

Date/timePositionNaut miles runAvg speedWind from/ knotsBaromVisibWave heightAir tempDewpointWater temp
2016-Aug-24 16:33N 40°37' E 014°20'5 5.2
2016-Aug-24 15:33N 40°33' E 014°14'0 0.0
2016-Aug-24 09:33N 40°34' E 014°15'3 2.3
2016-Aug-24 08:25N 40°33' E 014°12'7 8.4
2016-Aug-24 07:33N 40°36' E 014°20'0 0.0
2016-Aug-23 16:33N 40°37' E 014°20'5 5.2
2016-Aug-23 15:33N 40°33' E 014°15'0 0.0
2016-Aug-23 09:33N 40°33' E 014°15'2 1.7
2016-Aug-23 08:14N 40°33' E 014°12'5 7.7
2016-Aug-23 07:33N 40°36' E 014°18'2 0.0
2016-Aug-21 16:33N 40°37' E 014°20'5 5.1
2016-Aug-21 15:33N 40°33' E 014°15'1 1.1
2016-Aug-21 14:33N 40°32' E 014°15'0 0.3
2016-Aug-21 13:33N 40°33' E 014°15'0 0.0
2016-Aug-21 12:33N 40°33' E 014°15'0 0.0
2016-Aug-21 11:33N 40°33' E 014°15'0 0.0
2016-Aug-21 10:33N 40°33' E 014°15'1 0.8
2016-Aug-21 09:33N 40°33' E 014°15'1 1.5
2016-Aug-21 08:33N 40°32' E 014°13'5 5.4
2016-Aug-21 07:33N 40°36' E 014°19'1 0.1
2016-Aug-20 16:31N 40°37' E 014°20'5 5.4
2016-Aug-20 15:33N 40°33' E 014°15'1 0.7
2016-Aug-20 14:31N 40°33' E 014°15'0 0.0
2016-Aug-20 13:34N 40°33' E 014°15'0 0.0
2016-Aug-20 12:34N 40°33' E 014°15'0 0.0
2016-Aug-20 11:33N 40°33' E 014°15'0 0.0
2016-Aug-20 10:32N 40°33' E 014°15'1 0.8
2016-Aug-20 09:33N 40°33' E 014°15'1 1.4
2016-Aug-20 08:34N 40°32' E 014°14'6 5.8
2016-Aug-20 07:33N 40°36' E 014°19'1 0.0
2016-Aug-18 16:33N 40°37' E 014°20'7 3.5
2016-Aug-18 14:33N 40°37' E 014°29'0 0.0
2016-Aug-18 13:31N 40°37' E 014°29'1 0.3
2016-Aug-18 08:27N 40°36' E 014°29'8 8.5
2016-Aug-18 07:33N 40°34' E 014°19'2 2.3
2016-Aug-18 06:33N 40°37' E 014°20'0 0.0
2016-Aug-17 16:33N 40°37' E 014°20'7 3.3
2016-Aug-17 14:27N 40°38' E 014°29'0 0.1
2016-Aug-17 13:31N 40°37' E 014°29'2 0.3
2016-Aug-17 08:33N 40°36' E 014°31'9 9.0
2016-Aug-17 07:33N 40°34' E 014°19'2 0.2
2016-Aug-16 16:33N 40°37' E 014°20'5 5.3
2016-Aug-16 15:33N 40°33' E 014°14'1 0.8
2016-Aug-16 14:33N 40°33' E 014°15'0 0.1
2016-Aug-16 13:33N 40°33' E 014°15'0 0.0
2016-Aug-16 12:33N 40°33' E 014°15'0 0.0
2016-Aug-16 11:33N 40°33' E 014°15'1 0.6
2016-Aug-16 09:33N 40°34' E 014°16'1 0.3
2016-Aug-16 08:05N 40°33' E 014°16'4 8.3
2016-Aug-16 07:33N 40°37' E 014°20'  

Dump ship's entire track history